TAF KTEX
KTEX 072320Z 0800/0824 28010KT P6SM SCT013 BKN060 FM080100 20006KT P6SM SCT045 BKN180 FM081200 13005KT P6SM BKN080 FM081800 24010G20KT P6SM VCSH SCT020 BKN050=
METAR KTEX
WC KTEX
WS KTEX
WV KTEX